createdAt,value
2019-05-11T00:00:51.813Z,12.70
2019-05-11T00:03:20.209Z,12.70
2019-05-11T00:05:48.871Z,12.70
2019-05-11T00:08:17.351Z,12.70
2019-05-11T00:10:45.814Z,12.70
2019-05-11T00:13:14.212Z,12.70
2019-05-11T00:15:42.657Z,12.70
2019-05-11T00:18:12.069Z,12.70
2019-05-11T00:20:40.505Z,12.70
2019-05-11T00:23:08.925Z,12.70
2019-05-11T00:25:37.345Z,12.70
2019-05-11T00:28:05.910Z,12.70
2019-05-11T00:30:34.504Z,12.70
2019-05-11T00:33:02.907Z,12.70
2019-05-11T00:35:31.354Z,12.60
2019-05-11T00:37:59.769Z,12.60
2019-05-11T00:40:28.272Z,12.50
2019-05-11T00:42:56.678Z,12.50
2019-05-11T00:45:25.086Z,12.50
2019-05-11T00:47:53.498Z,12.40
2019-05-11T00:50:36.786Z,12.40
2019-05-11T00:52:52.078Z,12.40
2019-05-11T00:55:20.551Z,12.40
2019-05-11T00:57:48.973Z,12.40
2019-05-11T01:00:17.931Z,12.30
2019-05-11T01:02:46.441Z,12.40
2019-05-11T01:05:14.968Z,12.40
2019-05-11T01:07:43.457Z,12.40
2019-05-11T01:10:25.291Z,12.40
2019-05-11T01:12:42.384Z,12.40
2019-05-11T01:15:12.453Z,12.40
2019-05-11T01:17:40.862Z,12.40
2019-05-11T01:20:09.515Z,12.40
2019-05-11T01:22:37.921Z,12.40
2019-05-11T01:25:06.531Z,12.40
2019-05-11T01:27:35.183Z,12.40
2019-05-11T01:30:04.173Z,12.40
2019-05-11T01:32:32.576Z,12.50
2019-05-11T01:35:00.994Z,12.40
2019-05-11T01:37:29.507Z,12.40
2019-05-11T01:39:57.920Z,12.40
2019-05-11T01:42:26.350Z,12.40
2019-05-11T01:44:55.673Z,12.40
2019-05-11T01:47:24.113Z,12.40
2019-05-11T01:49:52.541Z,12.40
2019-05-11T01:52:20.962Z,12.50
2019-05-11T01:54:49.573Z,12.50
2019-05-11T01:57:18.029Z,12.50
2019-05-11T01:59:46.440Z,12.50
2019-05-11T02:02:14.881Z,12.50
2019-05-11T02:04:43.294Z,12.50
2019-05-11T02:07:11.710Z,12.50
2019-05-11T02:09:40.105Z,12.50
2019-05-11T02:12:08.537Z,12.50
2019-05-11T02:14:37.314Z,12.40
2019-05-11T02:17:05.723Z,12.40
2019-05-11T02:19:34.126Z,12.40
2019-05-11T02:22:02.805Z,12.40
2019-05-11T02:24:31.209Z,12.40
2019-05-11T02:26:59.678Z,12.40
2019-05-11T02:29:28.113Z,12.40
2019-05-11T02:31:56.583Z,12.40
2019-05-11T02:34:25.019Z,12.30
2019-05-11T02:36:53.434Z,12.40
2019-05-11T02:39:21.857Z,12.30
2019-05-11T02:41:50.841Z,12.30
2019-05-11T02:44:19.286Z,12.30
2019-05-11T02:46:47.681Z,12.30
2019-05-11T02:49:16.127Z,12.20
2019-05-11T02:51:45.466Z,12.20
2019-05-11T02:54:14.109Z,12.20
2019-05-11T02:56:42.533Z,12.20
2019-05-11T02:59:10.946Z,12.20
2019-05-11T03:01:39.362Z,12.20
2019-05-11T03:04:07.778Z,12.20
2019-05-11T03:06:36.183Z,12.20
2019-05-11T03:09:06.318Z,12.10
2019-05-11T03:11:52.841Z,12.10
2019-05-11T03:14:05.451Z,12.10
2019-05-11T03:16:33.870Z,12.10
2019-05-11T03:19:02.279Z,12.10
2019-05-11T03:21:30.838Z,12.10
2019-05-11T03:23:59.275Z,12.10
2019-05-11T03:26:27.686Z,12.10
2019-05-11T03:28:56.286Z,12.10
2019-05-11T03:31:24.700Z,12.10
2019-05-11T03:33:53.125Z,12.10
2019-05-11T03:36:21.548Z,12.10
2019-05-11T03:38:49.951Z,12.10
2019-05-11T03:41:18.384Z,12.10
2019-05-11T03:43:46.841Z,12.10
2019-05-11T03:46:15.305Z,12.10
2019-05-11T03:48:43.717Z,12.00
2019-05-11T03:51:12.182Z,12.00
2019-05-11T03:53:40.681Z,12.00
2019-05-11T03:56:09.146Z,12.00
2019-05-11T03:58:37.571Z,11.90
2019-05-11T04:01:05.995Z,11.90
2019-05-11T04:03:34.403Z,11.90
2019-05-11T04:06:02.830Z,11.90
2019-05-11T04:08:31.708Z,11.90
2019-05-11T04:11:00.523Z,11.80
2019-05-11T04:13:28.934Z,11.80
2019-05-11T04:15:57.347Z,11.80
2019-05-11T04:18:25.761Z,11.80
2019-05-11T04:20:54.175Z,11.80
2019-05-11T04:23:22.901Z,11.80
2019-05-11T04:25:51.339Z,11.70
2019-05-11T04:28:19.753Z,11.80
2019-05-11T04:30:48.155Z,11.80
2019-05-11T04:33:16.588Z,11.80
2019-05-11T04:35:44.986Z,11.70
2019-05-11T04:38:13.399Z,11.80
2019-05-11T04:40:41.801Z,11.80
2019-05-11T04:43:10.220Z,11.80
2019-05-11T04:45:38.874Z,11.80
2019-05-11T04:48:07.630Z,11.80
2019-05-11T04:50:36.054Z,11.80
2019-05-11T04:53:04.483Z,11.80
2019-05-11T04:55:32.915Z,11.90
2019-05-11T04:58:01.383Z,11.90
2019-05-11T05:00:29.783Z,11.90
2019-05-11T05:02:58.279Z,11.90
2019-05-11T05:05:26.734Z,11.90
2019-05-11T05:08:08.502Z,11.90
2019-05-11T05:10:25.710Z,11.90
2019-05-11T05:13:08.543Z,12.00
2019-05-11T05:15:24.306Z,12.00
2019-05-11T05:17:52.724Z,11.90
2019-05-11T05:20:21.136Z,11.90
2019-05-11T05:22:49.553Z,11.90
2019-05-11T05:25:17.966Z,11.90
2019-05-11T05:27:46.662Z,11.90
2019-05-11T05:30:15.706Z,11.90
2019-05-11T05:32:44.733Z,11.90
2019-05-11T05:35:13.323Z,11.90
2019-05-11T05:37:41.746Z,11.90
2019-05-11T05:40:10.295Z,11.90
2019-05-11T05:42:38.710Z,11.90
2019-05-11T05:45:07.798Z,11.90
2019-05-11T05:47:36.228Z,11.90
2019-05-11T05:50:06.288Z,11.90
2019-05-11T05:52:34.710Z,11.90
2019-05-11T05:55:03.689Z,11.90
2019-05-11T05:57:32.186Z,11.90
2019-05-11T06:00:00.824Z,11.90
2019-05-11T06:02:29.247Z,11.90
2019-05-11T06:04:57.677Z,11.90
2019-05-11T06:07:26.251Z,11.90
2019-05-11T06:09:55.954Z,12.00
2019-05-11T06:12:24.371Z,12.00
2019-05-11T06:14:52.804Z,12.00
2019-05-11T06:17:21.228Z,11.90
2019-05-11T06:19:49.899Z,11.90
2019-05-11T06:22:18.339Z,12.00
2019-05-11T06:24:46.785Z,12.00
2019-05-11T06:27:15.185Z,12.00
2019-05-11T06:29:43.616Z,12.00
2019-05-11T06:32:12.070Z,12.00
2019-05-11T06:34:40.504Z,12.00
2019-05-11T06:37:08.998Z,12.10
2019-05-11T06:39:37.512Z,12.10
2019-05-11T06:42:06.004Z,12.10
2019-05-11T06:44:34.429Z,12.10
2019-05-11T06:47:02.843Z,12.10
2019-05-11T06:49:31.275Z,12.20
2019-05-11T06:51:59.774Z,12.20
2019-05-11T06:54:28.215Z,12.30
2019-05-11T06:56:56.695Z,12.30
2019-05-11T06:59:25.123Z,12.40
2019-05-11T07:01:53.570Z,12.50
2019-05-11T07:04:21.993Z,12.50
2019-05-11T07:06:50.453Z,12.60
2019-05-11T07:09:19.059Z,12.60
2019-05-11T07:11:47.470Z,12.70
2019-05-11T07:14:20.398Z,12.70
2019-05-11T07:16:46.085Z,12.70
2019-05-11T07:19:14.569Z,12.80
2019-05-11T07:21:42.983Z,12.90
2019-05-11T07:24:11.431Z,12.80
2019-05-11T07:26:39.888Z,12.90
2019-05-11T07:29:08.322Z,12.90
2019-05-11T07:31:36.767Z,12.90
2019-05-11T07:34:07.993Z,12.90
2019-05-11T07:36:35.621Z,12.90
2019-05-11T07:39:08.144Z,12.90
2019-05-11T07:41:38.499Z,12.80
2019-05-11T07:44:06.214Z,12.90
2019-05-11T07:46:34.692Z,12.90
2019-05-11T07:49:03.200Z,12.90
2019-05-11T07:51:31.654Z,12.90
2019-05-11T07:54:00.086Z,13.00
2019-05-11T07:56:28.697Z,13.00
2019-05-11T07:58:58.059Z,13.10
2019-05-11T08:01:28.255Z,13.10
2019-05-11T08:03:58.587Z,13.10
2019-05-11T08:06:28.560Z,13.20
2019-05-11T08:08:58.807Z,13.20
2019-05-11T08:11:30.703Z,13.30
2019-05-11T08:13:58.448Z,13.30
2019-05-11T08:16:28.631Z,13.30
2019-05-11T08:18:58.847Z,13.40
2019-05-11T08:21:28.379Z,13.40
2019-05-11T08:23:58.710Z,13.40
2019-05-11T08:26:28.259Z,13.50
2019-05-11T08:28:57.985Z,13.50
2019-05-11T08:31:27.980Z,13.50
2019-05-11T08:33:58.367Z,13.60
2019-05-11T08:36:28.929Z,13.60
2019-05-11T08:38:58.597Z,13.60
2019-05-11T08:41:28.116Z,13.70
2019-05-11T08:43:58.703Z,13.70
2019-05-11T08:46:27.994Z,13.80
2019-05-11T08:48:59.540Z,13.80
2019-05-11T08:51:28.115Z,13.80
2019-05-11T08:53:58.328Z,13.90
2019-05-11T08:56:28.870Z,13.90
2019-05-11T08:58:58.851Z,14.00
2019-05-11T09:01:28.734Z,14.00
2019-05-11T09:03:58.384Z,14.10
2019-05-11T09:06:28.375Z,14.10
2019-05-11T09:08:58.314Z,14.10
2019-05-11T09:11:28.393Z,14.20
2019-05-11T09:13:57.877Z,14.20
2019-05-11T09:16:28.908Z,14.30
2019-05-11T09:18:58.126Z,14.30
2019-05-11T09:21:28.144Z,14.40
2019-05-11T09:23:57.884Z,14.40
2019-05-11T09:26:28.537Z,14.40
2019-05-11T09:28:58.193Z,14.50
2019-05-11T09:31:27.996Z,14.50
2019-05-11T09:33:58.371Z,14.50
2019-05-11T09:36:28.530Z,14.50
2019-05-11T09:38:58.149Z,14.60
2019-05-11T09:41:28.971Z,14.70
2019-05-11T09:43:58.716Z,14.70
2019-05-11T09:46:27.961Z,14.80
2019-05-11T09:48:58.914Z,14.80
2019-05-11T09:51:28.713Z,14.90
2019-05-11T09:53:58.779Z,14.90
2019-05-11T09:56:28.714Z,15.00
2019-05-11T09:58:58.190Z,15.00
2019-05-11T10:01:29.478Z,15.10
2019-05-11T10:03:58.509Z,15.20
2019-05-11T10:06:28.157Z,15.30
2019-05-11T10:08:57.878Z,15.40
2019-05-11T10:11:28.275Z,15.50
2019-05-11T10:13:57.809Z,15.50
2019-05-11T10:16:28.100Z,15.60
2019-05-11T10:18:58.997Z,15.60
2019-05-11T10:21:27.810Z,15.70
2019-05-11T10:23:57.986Z,15.70
2019-05-11T10:26:27.873Z,15.80
2019-05-11T10:28:58.309Z,15.80
2019-05-11T10:31:28.517Z,15.90
2019-05-11T10:33:58.024Z,16.00
2019-05-11T10:36:28.030Z,16.10
2019-05-11T10:38:58.671Z,16.20
2019-05-11T10:41:28.506Z,16.20
2019-05-11T10:43:58.054Z,16.30
2019-05-11T10:46:28.761Z,16.30
2019-05-11T10:48:58.661Z,16.40
2019-05-11T10:51:28.854Z,16.40
2019-05-11T10:53:57.746Z,16.40
2019-05-11T10:56:28.380Z,16.50
2019-05-11T10:58:58.646Z,16.50
2019-05-11T11:01:28.525Z,16.40
2019-05-11T11:03:58.670Z,16.40
2019-05-11T11:06:28.142Z,16.40
2019-05-11T11:08:57.853Z,16.40
2019-05-11T11:11:27.756Z,16.40
2019-05-11T11:13:58.306Z,16.50
2019-05-11T11:16:36.855Z,16.60
2019-05-11T11:18:58.716Z,16.80
2019-05-11T11:21:27.857Z,17.00
2019-05-11T11:23:58.567Z,17.20
2019-05-11T11:26:28.540Z,17.50
2019-05-11T11:28:58.107Z,17.70
2019-05-11T11:31:28.689Z,18.00
2019-05-11T11:33:58.501Z,18.20
2019-05-11T11:36:28.327Z,18.30
2019-05-11T11:38:58.322Z,18.50
2019-05-11T11:41:29.907Z,18.60
2019-05-11T11:43:58.632Z,18.60
2019-05-11T11:46:27.802Z,18.50
2019-05-11T11:48:58.131Z,18.40
2019-05-11T11:51:28.065Z,18.30
2019-05-11T11:53:58.379Z,18.30
2019-05-11T11:56:28.347Z,18.20
2019-05-11T11:58:57.963Z,18.20
2019-05-11T12:01:28.077Z,18.30
2019-05-11T12:03:58.076Z,18.40
2019-05-11T12:06:28.045Z,18.50
2019-05-11T12:08:58.520Z,18.60
2019-05-11T12:11:27.909Z,18.90
2019-05-11T12:13:57.946Z,19.00
2019-05-11T12:16:28.145Z,19.10
2019-05-11T12:18:57.805Z,19.10
2019-05-11T12:21:27.751Z,19.00
2019-05-11T12:23:58.366Z,18.90
2019-05-11T12:26:28.160Z,18.80
2019-05-11T12:28:57.717Z,18.70
2019-05-11T12:31:28.578Z,18.60
2019-05-11T12:33:58.487Z,18.60
2019-05-11T12:36:28.097Z,18.80
2019-05-11T12:38:58.069Z,18.90
2019-05-11T12:41:28.017Z,19.10
2019-05-11T12:43:57.760Z,19.10
2019-05-11T12:46:27.694Z,19.10
2019-05-11T12:48:57.258Z,19.00
2019-05-11T12:51:27.685Z,18.90
2019-05-11T12:53:57.656Z,18.80
2019-05-11T12:56:27.772Z,18.70
2019-05-11T12:58:58.234Z,18.70
2019-05-11T13:01:28.910Z,18.80
2019-05-11T13:03:58.077Z,18.90
2019-05-11T13:06:27.940Z,19.00
2019-05-11T13:08:58.595Z,19.20
2019-05-11T13:11:28.447Z,19.40
2019-05-11T13:13:58.536Z,19.50
2019-05-11T13:16:28.823Z,19.70
2019-05-11T13:18:57.655Z,19.80
2019-05-11T13:21:28.515Z,19.90
2019-05-11T13:23:57.712Z,19.90
2019-05-11T13:26:28.281Z,19.90
2019-05-11T13:28:58.354Z,19.90
2019-05-11T13:31:27.818Z,19.90
2019-05-11T13:33:58.535Z,19.80
2019-05-11T13:36:28.509Z,19.70
2019-05-11T13:38:58.740Z,19.60
2019-05-11T13:41:28.062Z,19.40
2019-05-11T13:43:57.714Z,19.30
2019-05-11T13:46:28.165Z,19.30
2019-05-11T13:48:57.947Z,19.30
2019-05-11T13:51:28.398Z,19.30
2019-05-11T13:53:58.485Z,19.30
2019-05-11T13:56:28.515Z,19.20
2019-05-11T13:58:59.049Z,19.30
2019-05-11T14:01:27.898Z,19.30
2019-05-11T14:03:58.369Z,19.30
2019-05-11T14:06:28.778Z,19.30
2019-05-11T14:08:58.662Z,19.40
2019-05-11T14:11:28.632Z,19.40
2019-05-11T14:13:58.455Z,19.40
2019-05-11T14:16:27.575Z,19.40
2019-05-11T14:18:57.814Z,19.40
2019-05-11T14:21:27.978Z,19.30
2019-05-11T14:23:58.650Z,19.30
2019-05-11T14:26:28.045Z,19.20
2019-05-11T14:28:58.230Z,19.10
2019-05-11T14:31:28.049Z,19.10
2019-05-11T14:33:57.918Z,19.00
2019-05-11T14:36:28.239Z,18.90
2019-05-11T14:38:57.813Z,18.90
2019-05-11T14:41:28.491Z,18.80
2019-05-11T14:43:57.945Z,18.70
2019-05-11T14:46:27.889Z,18.70
2019-05-11T14:48:58.525Z,18.60
2019-05-11T14:51:30.011Z,18.60
2019-05-11T14:53:59.467Z,18.60
2019-05-11T14:56:28.066Z,18.50
2019-05-11T14:58:58.021Z,18.50
2019-05-11T15:01:28.617Z,18.50
2019-05-11T15:03:58.891Z,18.40
2019-05-11T15:06:27.923Z,18.50
2019-05-11T15:08:58.214Z,18.50
2019-05-11T15:11:28.064Z,18.50
2019-05-11T15:13:57.564Z,18.50
2019-05-11T15:16:27.903Z,18.40
2019-05-11T15:18:59.320Z,18.40
2019-05-11T15:21:28.131Z,18.30
2019-05-11T15:23:58.100Z,18.20
2019-05-11T15:26:27.756Z,18.10
2019-05-11T15:28:58.394Z,18.00
2019-05-11T15:31:27.834Z,17.90
2019-05-11T15:33:57.753Z,17.80
2019-05-11T15:36:28.380Z,17.70
2019-05-11T15:38:58.237Z,17.60
2019-05-11T15:41:28.143Z,17.60
2019-05-11T15:43:57.938Z,17.60
2019-05-11T15:46:28.210Z,17.70
2019-05-11T15:49:03.083Z,17.70
2019-05-11T15:51:28.979Z,17.80
2019-05-11T15:53:58.730Z,17.80
2019-05-11T15:56:27.997Z,17.80
2019-05-11T15:58:57.823Z,17.80
2019-05-11T16:01:28.755Z,17.80
2019-05-11T16:03:58.256Z,17.70
2019-05-11T16:06:28.447Z,17.50
2019-05-11T16:08:58.609Z,17.30
2019-05-11T16:11:28.396Z,17.10
2019-05-11T16:13:58.631Z,16.80
2019-05-11T16:16:28.112Z,16.60
2019-05-11T16:19:08.605Z,16.30
2019-05-11T16:21:28.585Z,16.10
2019-05-11T16:23:58.513Z,16.00
2019-05-11T16:26:28.083Z,15.80
2019-05-11T16:28:58.187Z,15.70
2019-05-11T16:31:28.445Z,15.60
2019-05-11T16:33:58.923Z,15.50
2019-05-11T16:36:28.447Z,15.50
2019-05-11T16:38:56.960Z,15.50
2019-05-11T16:41:25.441Z,15.60
2019-05-11T16:43:54.206Z,15.60
2019-05-11T16:46:22.611Z,15.60
2019-05-11T16:48:51.066Z,15.70
2019-05-11T16:51:19.557Z,15.70
2019-05-11T16:53:48.674Z,15.80
2019-05-11T16:56:19.532Z,15.80
2019-05-11T16:58:48.460Z,15.80
2019-05-11T17:01:18.851Z,15.80
2019-05-11T17:03:48.200Z,15.80
2019-05-11T17:06:16.805Z,15.70
2019-05-11T17:08:45.260Z,15.70
2019-05-11T17:13:54.474Z,15.60
2019-05-11T17:16:22.901Z,15.60
2019-05-11T17:18:51.329Z,15.70
2019-05-11T17:21:19.880Z,15.70
2019-05-11T17:23:48.928Z,15.70
2019-05-11T17:26:19.045Z,15.70
2019-05-11T17:28:48.923Z,15.70
2019-05-11T17:31:18.839Z,15.70
2019-05-11T17:33:47.743Z,15.70
2019-05-11T17:36:18.522Z,15.70
2019-05-11T17:38:47.914Z,15.70
2019-05-11T17:41:16.644Z,15.70
2019-05-11T17:43:45.077Z,15.70
2019-05-11T17:46:13.501Z,15.80
2019-05-11T17:48:41.931Z,15.70
2019-05-11T17:51:21.381Z,15.70
2019-05-11T17:53:41.692Z,15.70
2019-05-11T17:56:10.125Z,15.70
2019-05-11T17:58:38.558Z,15.70
2019-05-11T18:01:09.367Z,15.70
2019-05-11T18:03:38.488Z,15.70
2019-05-11T18:06:08.514Z,15.70
2019-05-11T18:08:37.564Z,15.70
2019-05-11T18:11:08.171Z,15.70
2019-05-11T18:13:36.134Z,15.80
2019-05-11T18:16:04.630Z,15.80
2019-05-11T18:18:33.033Z,15.90
2019-05-11T18:21:01.543Z,15.90
2019-05-11T18:23:30.003Z,15.90
2019-05-11T18:25:58.451Z,15.80
2019-05-11T18:28:29.037Z,15.80
2019-05-11T18:30:58.251Z,15.70
2019-05-11T18:33:27.703Z,15.70
2019-05-11T18:35:58.307Z,15.60
2019-05-11T18:38:27.666Z,15.50
2019-05-11T18:40:58.000Z,15.40
2019-05-11T18:43:28.068Z,15.40
2019-05-11T18:45:58.151Z,15.30
2019-05-11T18:48:29.112Z,15.20
2019-05-11T18:50:58.900Z,15.10
2019-05-11T18:53:28.861Z,15.10
2019-05-11T18:55:59.077Z,15.10
2019-05-11T18:58:27.952Z,15.00
2019-05-11T19:00:56.647Z,14.90
2019-05-11T19:03:25.058Z,14.90
2019-05-11T19:05:53.547Z,14.80
2019-05-11T19:08:21.972Z,14.80
2019-05-11T19:10:50.558Z,14.70
2019-05-11T19:13:18.974Z,14.70
2019-05-11T19:15:48.657Z,14.60
2019-05-11T19:18:17.302Z,14.50
2019-05-11T19:20:49.070Z,14.50
2019-05-11T19:23:15.899Z,14.50
2019-05-11T19:25:44.302Z,14.40
2019-05-11T19:28:13.629Z,14.30
2019-05-11T19:30:42.072Z,14.30
2019-05-11T19:33:11.134Z,14.20
2019-05-11T19:35:39.918Z,14.20
2019-05-11T19:38:08.781Z,14.10
2019-05-11T19:40:38.347Z,14.10
2019-05-11T19:43:08.322Z,14.00
2019-05-11T19:45:38.467Z,14.00
2019-05-11T19:48:08.348Z,13.90
2019-05-11T19:50:40.347Z,13.90
2019-05-11T19:53:08.441Z,13.80
2019-05-11T19:55:37.155Z,13.80
2019-05-11T19:58:05.666Z,13.80
2019-05-11T20:00:34.160Z,13.70
2019-05-11T20:03:02.676Z,13.70
2019-05-11T20:05:31.525Z,13.70
2019-05-11T20:08:00.133Z,13.60
2019-05-11T20:10:28.557Z,13.60
2019-05-11T20:12:58.727Z,13.50
2019-05-11T20:15:27.487Z,13.50
2019-05-11T20:17:55.919Z,13.50
2019-05-11T20:20:24.443Z,13.40
2019-05-11T20:22:52.918Z,13.40
2019-05-11T20:25:21.361Z,13.40
2019-05-11T20:27:49.782Z,13.40
2019-05-11T20:30:19.134Z,13.30
2019-05-11T20:32:48.837Z,13.30
2019-05-11T20:35:17.807Z,13.30
2019-05-11T20:37:46.219Z,13.30
2019-05-11T20:40:14.971Z,13.20
2019-05-11T20:42:43.378Z,13.20
2019-05-11T20:45:12.136Z,13.10
2019-05-11T20:47:41.141Z,13.00
2019-05-11T20:50:10.136Z,13.00
2019-05-11T20:52:39.657Z,12.90
2019-05-11T20:55:08.843Z,12.90
2019-05-11T20:57:39.155Z,12.90
2019-05-11T21:00:10.315Z,12.90
2019-05-11T21:02:38.822Z,12.90
2019-05-11T21:05:09.103Z,12.90
2019-05-11T21:07:38.989Z,12.90
2019-05-11T21:10:08.982Z,12.90
2019-05-11T21:12:38.646Z,13.00
2019-05-11T21:15:09.193Z,12.90
2019-05-11T21:17:37.681Z,12.90
2019-05-11T21:20:08.140Z,12.90
2019-05-11T21:22:40.160Z,12.90
2019-05-11T21:25:10.321Z,12.90
2019-05-11T21:27:38.622Z,12.90
2019-05-11T21:30:09.516Z,12.80
2019-05-11T21:32:41.478Z,12.80
2019-05-11T21:35:10.036Z,12.70
2019-05-11T21:37:39.151Z,12.70
2019-05-11T21:40:09.215Z,12.60
2019-05-11T21:42:38.963Z,12.50
2019-05-11T21:45:09.463Z,12.50
2019-05-11T21:47:39.572Z,12.40
2019-05-11T21:50:09.603Z,12.40
2019-05-11T21:52:38.850Z,12.30
2019-05-11T21:55:09.456Z,12.30
2019-05-11T21:57:38.270Z,12.40
2019-05-11T22:00:09.042Z,12.40
2019-05-11T22:02:38.474Z,12.40
2019-05-11T22:05:08.491Z,12.50
2019-05-11T22:07:38.743Z,12.50
2019-05-11T22:10:09.102Z,12.50
2019-05-11T22:12:38.708Z,12.50
2019-05-11T22:15:09.722Z,12.40
2019-05-11T22:17:39.589Z,12.30
2019-05-11T22:20:09.655Z,12.20
2019-05-11T22:22:38.874Z,12.10
2019-05-11T22:25:08.899Z,12.00
2019-05-11T22:27:38.699Z,11.90
2019-05-11T22:30:08.644Z,11.90
2019-05-11T22:32:38.314Z,11.80
2019-05-11T22:35:08.909Z,11.70
2019-05-11T22:37:38.640Z,11.60
2019-05-11T22:40:09.397Z,11.50
2019-05-11T22:42:38.271Z,11.50
2019-05-11T22:45:08.591Z,11.40
2019-05-11T22:47:39.137Z,11.30
2019-05-11T22:50:09.140Z,11.20
2019-05-11T22:52:40.293Z,11.20
2019-05-11T22:55:11.942Z,11.10
2019-05-11T22:57:39.156Z,11.10
2019-05-11T23:00:09.670Z,11.00
2019-05-11T23:02:38.548Z,11.00
2019-05-11T23:05:08.840Z,10.90
2019-05-11T23:07:41.166Z,10.90
2019-05-11T23:10:09.436Z,10.80
2019-05-11T23:12:38.523Z,10.80
2019-05-11T23:15:12.472Z,10.70
2019-05-11T23:17:41.163Z,10.70
2019-05-11T23:20:10.605Z,10.70
2019-05-11T23:22:56.709Z,10.60
2019-05-11T23:25:18.620Z,10.60
2019-05-11T23:27:48.551Z,10.50
2019-05-11T23:30:19.651Z,10.50
2019-05-11T23:32:48.820Z,10.40
2019-05-11T23:35:18.859Z,10.40
2019-05-11T23:37:49.620Z,10.40
2019-05-11T23:40:19.887Z,10.30
2019-05-11T23:42:49.208Z,10.30
2019-05-11T23:45:19.037Z,10.30
2019-05-11T23:47:48.693Z,10.20
2019-05-11T23:50:19.063Z,10.20
2019-05-11T23:52:53.196Z,10.10
2019-05-11T23:55:19.168Z,10.10
2019-05-11T23:57:48.585Z,10.00
